sensor_id;sensor_type;location;lat;lon;timestamp;P1;durP1;ratioP1;P2;durP2;ratioP2
30723;SDS011;17473;52.286;20.930;2023-03-23T00:02:22;40.37;;;23.30;;
30723;SDS011;17473;52.286;20.930;2023-03-23T00:05:01;43.57;;;24.23;;
30723;SDS011;17473;52.286;20.930;2023-03-23T00:07:29;39.40;;;23.37;;
30723;SDS011;17473;52.286;20.930;2023-03-23T00:09:55;36.83;;;23.70;;
30723;SDS011;17473;52.286;20.930;2023-03-23T00:12:21;41.93;;;24.47;;
30723;SDS011;17473;52.286;20.930;2023-03-23T00:15:03;38.78;;;23.20;;
30723;SDS011;17473;52.286;20.930;2023-03-23T00:17:32;39.03;;;23.00;;
30723;SDS011;17473;52.286;20.930;2023-03-23T00:19:59;38.00;;;23.57;;
30723;SDS011;17473;52.286;20.930;2023-03-23T00:22:27;37.70;;;23.07;;
30723;SDS011;17473;52.286;20.930;2023-03-23T00:24:54;39.30;;;23.70;;
30723;SDS011;17473;52.286;20.930;2023-03-23T00:27:21;39.00;;;23.77;;
30723;SDS011;17473;52.286;20.930;2023-03-23T00:29:48;38.77;;;24.40;;
30723;SDS011;17473;52.286;20.930;2023-03-23T00:32:19;36.78;;;22.90;;
30723;SDS011;17473;52.286;20.930;2023-03-23T00:34:56;37.90;;;22.47;;
30723;SDS011;17473;52.286;20.930;2023-03-23T00:37:26;40.93;;;22.60;;
30723;SDS011;17473;52.286;20.930;2023-03-23T00:39:52;40.80;;;23.47;;
30723;SDS011;17473;52.286;20.930;2023-03-23T00:42:22;38.47;;;23.77;;
30723;SDS011;17473;52.286;20.930;2023-03-23T00:44:48;38.50;;;23.80;;
30723;SDS011;17473;52.286;20.930;2023-03-23T00:47:15;40.55;;;23.50;;
30723;SDS011;17473;52.286;20.930;2023-03-23T00:49:42;38.23;;;23.07;;
30723;SDS011;17473;52.286;20.930;2023-03-23T00:52:09;40.95;;;24.00;;
30723;SDS011;17473;52.286;20.930;2023-03-23T00:54:35;40.13;;;23.13;;
30723;SDS011;17473;52.286;20.930;2023-03-23T00:57:03;36.47;;;22.73;;
30723;SDS011;17473;52.286;20.930;2023-03-23T00:59:30;35.20;;;23.30;;
30723;SDS011;17473;52.286;20.930;2023-03-23T01:01:56;37.92;;;22.70;;
30723;SDS011;17473;52.286;20.930;2023-03-23T01:04:22;38.90;;;22.23;;
30723;SDS011;17473;52.286;20.930;2023-03-23T01:06:49;40.47;;;23.90;;
30723;SDS011;17473;52.286;20.930;2023-03-23T01:09:16;37.55;;;22.70;;
30723;SDS011;17473;52.286;20.930;2023-03-23T01:11:46;35.97;;;23.23;;
30723;SDS011;17473;52.286;20.930;2023-03-23T01:14:14;40.03;;;22.63;;
30723;SDS011;17473;52.286;20.930;2023-03-23T01:16:42;35.43;;;21.87;;
30723;SDS011;17473;52.286;20.930;2023-03-23T01:19:08;38.37;;;24.10;;
30723;SDS011;17473;52.286;20.930;2023-03-23T01:21:35;36.33;;;22.37;;
30723;SDS011;17473;52.286;20.930;2023-03-23T01:24:01;33.40;;;21.13;;
30723;SDS011;17473;52.286;20.930;2023-03-23T01:26:28;37.60;;;23.37;;
30723;SDS011;17473;52.286;20.930;2023-03-23T01:28:54;40.67;;;22.43;;
30723;SDS011;17473;52.286;20.930;2023-03-23T01:31:21;37.60;;;22.83;;
30723;SDS011;17473;52.286;20.930;2023-03-23T01:33:50;41.97;;;22.47;;
30723;SDS011;17473;52.286;20.930;2023-03-23T01:36:18;34.27;;;21.93;;
30723;SDS011;17473;52.286;20.930;2023-03-23T01:38:54;37.03;;;20.90;;
30723;SDS011;17473;52.286;20.930;2023-03-23T01:41:21;36.97;;;22.13;;
30723;SDS011;17473;52.286;20.930;2023-03-23T01:43:53;33.58;;;20.77;;
30723;SDS011;17473;52.286;20.930;2023-03-23T01:46:53;36.80;;;21.90;;
30723;SDS011;17473;52.286;20.930;2023-03-23T01:49:29;35.10;;;21.23;;
30723;SDS011;17473;52.286;20.930;2023-03-23T01:52:07;32.57;;;20.50;;
30723;SDS011;17473;52.286;20.930;2023-03-23T01:54:46;40.78;;;22.70;;
30723;SDS011;17473;52.286;20.930;2023-03-23T01:57:18;33.07;;;20.97;;
30723;SDS011;17473;52.286;20.930;2023-03-23T01:59:50;36.33;;;21.87;;
30723;SDS011;17473;52.286;20.930;2023-03-23T02:02:20;33.47;;;20.40;;
30723;SDS011;17473;52.286;20.930;2023-03-23T02:04:49;33.63;;;20.93;;
30723;SDS011;17473;52.286;20.930;2023-03-23T02:07:17;36.00;;;19.73;;
30723;SDS011;17473;52.286;20.930;2023-03-23T02:09:45;39.53;;;20.73;;
30723;SDS011;17473;52.286;20.930;2023-03-23T02:12:11;36.60;;;20.97;;
30723;SDS011;17473;52.286;20.930;2023-03-23T02:14:38;38.50;;;20.80;;
30723;SDS011;17473;52.286;20.930;2023-03-23T02:17:12;32.53;;;19.50;;
30723;SDS011;17473;52.286;20.930;2023-03-23T02:19:49;32.90;;;19.20;;
30723;SDS011;17473;52.286;20.930;2023-03-23T02:34:17;35.97;;;20.67;;
30723;SDS011;17473;52.286;20.930;2023-03-23T02:36:56;35.63;;;20.57;;
30723;SDS011;17473;52.286;20.930;2023-03-23T02:39:45;37.53;;;20.10;;
30723;SDS011;17473;52.286;20.930;2023-03-23T02:42:23;33.90;;;19.73;;
30723;SDS011;17473;52.286;20.930;2023-03-23T02:44:54;31.07;;;19.47;;
30723;SDS011;17473;52.286;20.930;2023-03-23T02:47:24;30.27;;;18.33;;
30723;SDS011;17473;52.286;20.930;2023-03-23T02:49:54;32.28;;;18.77;;
30723;SDS011;17473;52.286;20.930;2023-03-23T02:52:29;29.48;;;18.88;;
30723;SDS011;17473;52.286;20.930;2023-03-23T02:54:57;29.47;;;18.23;;
30723;SDS011;17473;52.286;20.930;2023-03-23T02:57:25;29.27;;;18.67;;
30723;SDS011;17473;52.286;20.930;2023-03-23T02:59:52;30.37;;;19.30;;
30723;SDS011;17473;52.286;20.930;2023-03-23T03:02:21;32.20;;;18.20;;
30723;SDS011;17473;52.286;20.930;2023-03-23T03:07:44;31.00;;;18.80;;
30723;SDS011;17473;52.286;20.930;2023-03-23T03:13:18;28.07;;;17.80;;
30723;SDS011;17473;52.286;20.930;2023-03-23T03:16:16;27.85;;;16.83;;
30723;SDS011;17473;52.286;20.930;2023-03-23T03:18:57;27.50;;;17.53;;
30723;SDS011;17473;52.286;20.930;2023-03-23T03:21:50;32.27;;;18.40;;
30723;SDS011;17473;52.286;20.930;2023-03-23T03:24:20;27.27;;;17.50;;
30723;SDS011;17473;52.286;20.930;2023-03-23T03:26:49;29.02;;;16.92;;
30723;SDS011;17473;52.286;20.930;2023-03-23T03:29:22;28.05;;;17.10;;
30723;SDS011;17473;52.286;20.930;2023-03-23T03:31:55;26.95;;;16.38;;
30723;SDS011;17473;52.286;20.930;2023-03-23T03:34:23;26.40;;;17.75;;
30723;SDS011;17473;52.286;20.930;2023-03-23T03:36:51;31.63;;;16.90;;
30723;SDS011;17473;52.286;20.930;2023-03-23T03:39:23;30.55;;;17.42;;
30723;SDS011;17473;52.286;20.930;2023-03-23T03:41:51;27.98;;;16.73;;
30723;SDS011;17473;52.286;20.930;2023-03-23T03:44:17;27.30;;;16.65;;
30723;SDS011;17473;52.286;20.930;2023-03-23T03:46:43;27.87;;;16.60;;
30723;SDS011;17473;52.286;20.930;2023-03-23T03:49:10;28.55;;;16.83;;
30723;SDS011;17473;52.286;20.930;2023-03-23T03:51:40;26.80;;;15.38;;
30723;SDS011;17473;52.286;20.930;2023-03-23T03:54:07;26.90;;;16.38;;
30723;SDS011;17473;52.286;20.930;2023-03-23T03:56:33;24.08;;;15.60;;
30723;SDS011;17473;52.286;20.930;2023-03-23T03:59:02;25.77;;;16.80;;
30723;SDS011;17473;52.286;20.930;2023-03-23T04:01:28;26.40;;;15.63;;
30723;SDS011;17473;52.286;20.930;2023-03-23T04:03:54;28.92;;;16.77;;
30723;SDS011;17473;52.286;20.930;2023-03-23T04:06:21;24.55;;;15.70;;
30723;SDS011;17473;52.286;20.930;2023-03-23T04:08:47;25.77;;;15.73;;
30723;SDS011;17473;52.286;20.930;2023-03-23T04:11:14;23.70;;;15.60;;
30723;SDS011;17473;52.286;20.930;2023-03-23T04:13:40;24.47;;;15.77;;
30723;SDS011;17473;52.286;20.930;2023-03-23T04:16:07;27.80;;;16.60;;
30723;SDS011;17473;52.286;20.930;2023-03-23T04:18:34;25.17;;;15.88;;
30723;SDS011;17473;52.286;20.930;2023-03-23T04:21:01;29.37;;;16.20;;
30723;SDS011;17473;52.286;20.930;2023-03-23T04:23:28;32.10;;;16.60;;
30723;SDS011;17473;52.286;20.930;2023-03-23T04:25:58;26.80;;;15.97;;
30723;SDS011;17473;52.286;20.930;2023-03-23T04:28:25;28.67;;;15.67;;
30723;SDS011;17473;52.286;20.930;2023-03-23T04:30:53;24.80;;;15.33;;
30723;SDS011;17473;52.286;20.930;2023-03-23T04:33:23;24.33;;;16.20;;
30723;SDS011;17473;52.286;20.930;2023-03-23T04:35:52;28.27;;;16.83;;
30723;SDS011;17473;52.286;20.930;2023-03-23T04:38:20;26.60;;;15.33;;
30723;SDS011;17473;52.286;20.930;2023-03-23T04:40:49;30.57;;;15.87;;
30723;SDS011;17473;52.286;20.930;2023-03-23T04:43:23;29.40;;;15.70;;
30723;SDS011;17473;52.286;20.930;2023-03-23T04:45:52;28.80;;;14.97;;
30723;SDS011;17473;52.286;20.930;2023-03-23T04:48:27;26.30;;;15.40;;
30723;SDS011;17473;52.286;20.930;2023-03-23T04:50:55;26.67;;;16.60;;
30723;SDS011;17473;52.286;20.930;2023-03-23T04:53:24;27.13;;;15.63;;
30723;SDS011;17473;52.286;20.930;2023-03-23T04:55:50;30.83;;;16.77;;
30723;SDS011;17473;52.286;20.930;2023-03-23T04:58:16;32.73;;;17.13;;
30723;SDS011;17473;52.286;20.930;2023-03-23T05:00:42;28.33;;;16.10;;
30723;SDS011;17473;52.286;20.930;2023-03-23T05:03:15;27.30;;;16.47;;
30723;SDS011;17473;52.286;20.930;2023-03-23T05:05:45;25.73;;;15.93;;
30723;SDS011;17473;52.286;20.930;2023-03-23T05:08:17;24.67;;;16.07;;
30723;SDS011;17473;52.286;20.930;2023-03-23T05:11:06;28.95;;;17.38;;
30723;SDS011;17473;52.286;20.930;2023-03-23T05:13:32;25.23;;;15.47;;
30723;SDS011;17473;52.286;20.930;2023-03-23T05:16:02;28.92;;;15.73;;
30723;SDS011;17473;52.286;20.930;2023-03-23T05:18:29;29.83;;;15.48;;
30723;SDS011;17473;52.286;20.930;2023-03-23T05:20:59;24.20;;;14.47;;
30723;SDS011;17473;52.286;20.930;2023-03-23T05:23:29;25.00;;;14.45;;
30723;SDS011;17473;52.286;20.930;2023-03-23T05:25:59;25.05;;;14.73;;
30723;SDS011;17473;52.286;20.930;2023-03-23T05:28:28;24.65;;;15.50;;
30723;SDS011;17473;52.286;20.930;2023-03-23T05:30:56;25.33;;;14.35;;
30723;SDS011;17473;52.286;20.930;2023-03-23T05:33:22;24.53;;;15.00;;
30723;SDS011;17473;52.286;20.930;2023-03-23T05:35:48;25.00;;;14.00;;
30723;SDS011;17473;52.286;20.930;2023-03-23T05:38:15;22.60;;;14.43;;
30723;SDS011;17473;52.286;20.930;2023-03-23T05:40:41;26.58;;;14.77;;
30723;SDS011;17473;52.286;20.930;2023-03-23T05:43:08;25.98;;;15.15;;
30723;SDS011;17473;52.286;20.930;2023-03-23T05:45:35;29.65;;;14.25;;
30723;SDS011;17473;52.286;20.930;2023-03-23T05:48:01;28.38;;;15.10;;
30723;SDS011;17473;52.286;20.930;2023-03-23T05:50:27;26.27;;;13.48;;
30723;SDS011;17473;52.286;20.930;2023-03-23T05:52:54;23.70;;;13.95;;
30723;SDS011;17473;52.286;20.930;2023-03-23T05:55:20;23.77;;;12.27;;
30723;SDS011;17473;52.286;20.930;2023-03-23T05:57:46;26.90;;;14.30;;
30723;SDS011;17473;52.286;20.930;2023-03-23T06:00:13;28.23;;;14.40;;
30723;SDS011;17473;52.286;20.930;2023-03-23T06:02:40;23.05;;;13.75;;
30723;SDS011;17473;52.286;20.930;2023-03-23T06:05:10;29.17;;;14.80;;
30723;SDS011;17473;52.286;20.930;2023-03-23T06:07:37;23.35;;;14.00;;
30723;SDS011;17473;52.286;20.930;2023-03-23T06:10:03;26.95;;;12.98;;
30723;SDS011;17473;52.286;20.930;2023-03-23T06:12:31;23.23;;;13.20;;
30723;SDS011;17473;52.286;20.930;2023-03-23T06:14:58;23.88;;;13.88;;
30723;SDS011;17473;52.286;20.930;2023-03-23T06:17:24;24.27;;;13.90;;
30723;SDS011;17473;52.286;20.930;2023-03-23T06:19:50;30.42;;;13.85;;
30723;SDS011;17473;52.286;20.930;2023-03-23T06:22:16;24.67;;;12.88;;
30723;SDS011;17473;52.286;20.930;2023-03-23T06:24:43;25.55;;;13.38;;
30723;SDS011;17473;52.286;20.930;2023-03-23T06:27:10;26.33;;;13.27;;
30723;SDS011;17473;52.286;20.930;2023-03-23T06:29:36;22.23;;;12.32;;
30723;SDS011;17473;52.286;20.930;2023-03-23T06:32:03;21.38;;;12.30;;
30723;SDS011;17473;52.286;20.930;2023-03-23T06:34:30;23.20;;;12.98;;
30723;SDS011;17473;52.286;20.930;2023-03-23T06:36:57;24.70;;;12.77;;
30723;SDS011;17473;52.286;20.930;2023-03-23T06:39:24;23.10;;;13.45;;
30723;SDS011;17473;52.286;20.930;2023-03-23T06:41:50;23.60;;;13.82;;
30723;SDS011;17473;52.286;20.930;2023-03-23T06:44:16;19.85;;;12.50;;
30723;SDS011;17473;52.286;20.930;2023-03-23T06:46:42;19.33;;;12.00;;
30723;SDS011;17473;52.286;20.930;2023-03-23T06:49:08;19.85;;;11.82;;
30723;SDS011;17473;52.286;20.930;2023-03-23T06:51:35;17.95;;;11.80;;
30723;SDS011;17473;52.286;20.930;2023-03-23T06:54:02;22.23;;;11.50;;
30723;SDS011;17473;52.286;20.930;2023-03-23T06:56:30;17.58;;;11.10;;
30723;SDS011;17473;52.286;20.930;2023-03-23T06:58:56;18.52;;;11.18;;
30723;SDS011;17473;52.286;20.930;2023-03-23T07:01:22;24.48;;;12.32;;
30723;SDS011;17473;52.286;20.930;2023-03-23T07:03:48;18.70;;;10.88;;
30723;SDS011;17473;52.286;20.930;2023-03-23T07:06:15;22.90;;;11.05;;
30723;SDS011;17473;52.286;20.930;2023-03-23T07:08:41;17.55;;;11.88;;
30723;SDS011;17473;52.286;20.930;2023-03-23T07:11:07;16.30;;;10.40;;
30723;SDS011;17473;52.286;20.930;2023-03-23T07:13:35;24.23;;;11.77;;
30723;SDS011;17473;52.286;20.930;2023-03-23T07:16:03;18.58;;;11.90;;
30723;SDS011;17473;52.286;20.930;2023-03-23T07:18:31;25.65;;;11.70;;
30723;SDS011;17473;52.286;20.930;2023-03-23T07:20:57;22.10;;;11.52;;
30723;SDS011;17473;52.286;20.930;2023-03-23T07:23:25;28.92;;;11.10;;
30723;SDS011;17473;52.286;20.930;2023-03-23T07:25:51;21.88;;;10.77;;
30723;SDS011;17473;52.286;20.930;2023-03-23T07:28:18;20.00;;;10.30;;
30723;SDS011;17473;52.286;20.930;2023-03-23T07:30:45;21.98;;;10.23;;
30723;SDS011;17473;52.286;20.930;2023-03-23T07:33:11;21.88;;;10.50;;
30723;SDS011;17473;52.286;20.930;2023-03-23T07:35:37;23.58;;;10.48;;
30723;SDS011;17473;52.286;20.930;2023-03-23T07:38:04;20.92;;;9.95;;
30723;SDS011;17473;52.286;20.930;2023-03-23T07:40:32;18.83;;;9.63;;
30723;SDS011;17473;52.286;20.930;2023-03-23T07:42:58;19.75;;;9.15;;
30723;SDS011;17473;52.286;20.930;2023-03-23T07:45:26;17.90;;;8.70;;
30723;SDS011;17473;52.286;20.930;2023-03-23T07:47:52;14.85;;;9.07;;
30723;SDS011;17473;52.286;20.930;2023-03-23T07:50:19;15.18;;;9.18;;
30723;SDS011;17473;52.286;20.930;2023-03-23T07:52:55;20.50;;;9.52;;
30723;SDS011;17473;52.286;20.930;2023-03-23T07:55:23;18.70;;;10.07;;
30723;SDS011;17473;52.286;20.930;2023-03-23T07:57:52;17.55;;;9.95;;
30723;SDS011;17473;52.286;20.930;2023-03-23T08:00:20;17.98;;;9.82;;
30723;SDS011;17473;52.286;20.930;2023-03-23T08:02:53;27.10;;;9.45;;
30723;SDS011;17473;52.286;20.930;2023-03-23T08:05:21;16.13;;;7.97;;
30723;SDS011;17473;52.286;20.930;2023-03-23T08:07:48;14.20;;;6.93;;
30723;SDS011;17473;52.286;20.930;2023-03-23T08:10:15;18.23;;;8.02;;
30723;SDS011;17473;52.286;20.930;2023-03-23T08:12:43;15.00;;;7.97;;
30723;SDS011;17473;52.286;20.930;2023-03-23T08:15:11;16.77;;;7.75;;
30723;SDS011;17473;52.286;20.930;2023-03-23T08:17:39;14.75;;;7.55;;
30723;SDS011;17473;52.286;20.930;2023-03-23T08:20:06;17.13;;;8.23;;
30723;SDS011;17473;52.286;20.930;2023-03-23T08:22:41;13.30;;;7.45;;
30723;SDS011;17473;52.286;20.930;2023-03-23T08:25:14;22.10;;;8.90;;
30723;SDS011;17473;52.286;20.930;2023-03-23T08:27:42;17.23;;;7.00;;
30723;SDS011;17473;52.286;20.930;2023-03-23T08:30:14;15.88;;;7.47;;
30723;SDS011;17473;52.286;20.930;2023-03-23T08:32:44;19.73;;;8.23;;
30723;SDS011;17473;52.286;20.930;2023-03-23T08:35:12;15.68;;;7.38;;
30723;SDS011;17473;52.286;20.930;2023-03-23T08:37:40;12.23;;;7.40;;
30723;SDS011;17473;52.286;20.930;2023-03-23T08:40:07;19.02;;;7.25;;
30723;SDS011;17473;52.286;20.930;2023-03-23T08:42:36;14.32;;;6.82;;
30723;SDS011;17473;52.286;20.930;2023-03-23T08:45:05;26.63;;;7.63;;
30723;SDS011;17473;52.286;20.930;2023-03-23T08:47:34;17.48;;;7.72;;
30723;SDS011;17473;52.286;20.930;2023-03-23T08:50:01;13.82;;;7.38;;
30723;SDS011;17473;52.286;20.930;2023-03-23T08:52:29;14.05;;;7.00;;
30723;SDS011;17473;52.286;20.930;2023-03-23T08:54:55;11.60;;;6.63;;
30723;SDS011;17473;52.286;20.930;2023-03-23T08:57:22;13.27;;;6.85;;
30723;SDS011;17473;52.286;20.930;2023-03-23T08:59:50;16.20;;;7.00;;
30723;SDS011;17473;52.286;20.930;2023-03-23T09:02:19;16.02;;;7.68;;
30723;SDS011;17473;52.286;20.930;2023-03-23T09:04:45;17.17;;;7.63;;
30723;SDS011;17473;52.286;20.930;2023-03-23T09:07:12;18.38;;;7.10;;
30723;SDS011;17473;52.286;20.930;2023-03-23T09:09:40;11.63;;;6.68;;
30723;SDS011;17473;52.286;20.930;2023-03-23T09:12:09;18.05;;;7.20;;
30723;SDS011;17473;52.286;20.930;2023-03-23T09:14:36;12.32;;;6.03;;
30723;SDS011;17473;52.286;20.930;2023-03-23T09:17:04;15.35;;;6.82;;
30723;SDS011;17473;52.286;20.930;2023-03-23T09:19:33;14.18;;;5.78;;
30723;SDS011;17473;52.286;20.930;2023-03-23T09:22:00;14.70;;;7.75;;
30723;SDS011;17473;52.286;20.930;2023-03-23T09:24:27;9.80;;;6.63;;
30723;SDS011;17473;52.286;20.930;2023-03-23T09:26:53;16.48;;;6.57;;
30723;SDS011;17473;52.286;20.930;2023-03-23T09:29:19;15.18;;;6.10;;
30723;SDS011;17473;52.286;20.930;2023-03-23T09:31:46;10.63;;;5.22;;
30723;SDS011;17473;52.286;20.930;2023-03-23T09:34:13;11.60;;;6.15;;
30723;SDS011;17473;52.286;20.930;2023-03-23T09:36:41;10.45;;;5.72;;
30723;SDS011;17473;52.286;20.930;2023-03-23T09:39:08;9.32;;;5.40;;
30723;SDS011;17473;52.286;20.930;2023-03-23T09:42:00;10.02;;;5.53;;
30723;SDS011;17473;52.286;20.930;2023-03-23T09:50:16;11.93;;;5.22;;
30723;SDS011;17473;52.286;20.930;2023-03-23T09:52:54;8.02;;;4.38;;
30723;SDS011;17473;52.286;20.930;2023-03-23T09:55:36;10.23;;;4.82;;
30723;SDS011;17473;52.286;20.930;2023-03-23T10:01:02;8.55;;;4.03;;
30723;SDS011;17473;52.286;20.930;2023-03-23T10:03:46;6.95;;;4.28;;
30723;SDS011;17473;52.286;20.930;2023-03-23T10:06:16;7.30;;;3.97;;
30723;SDS011;17473;52.286;20.930;2023-03-23T10:08:47;11.55;;;3.70;;
30723;SDS011;17473;52.286;20.930;2023-03-23T10:14:07;17.83;;;3.50;;
30723;SDS011;17473;52.286;20.930;2023-03-23T10:22:16;5.63;;;3.53;;
30723;SDS011;17473;52.286;20.930;2023-03-23T10:28:24;6.95;;;3.40;;
30723;SDS011;17473;52.286;20.930;2023-03-23T10:30:42;5.18;;;3.10;;
30723;SDS011;17473;52.286;20.930;2023-03-23T10:33:26;9.30;;;3.42;;
30723;SDS011;17473;52.286;20.930;2023-03-23T10:36:33;15.25;;;4.25;;
30723;SDS011;17473;52.286;20.930;2023-03-23T10:41:44;4.82;;;3.40;;
30723;SDS011;17473;52.286;20.930;2023-03-23T10:44:19;11.07;;;4.57;;
30723;SDS011;17473;52.286;20.930;2023-03-23T10:47:03;5.68;;;3.35;;
30723;SDS011;17473;52.286;20.930;2023-03-23T10:57:35;8.43;;;3.65;;
30723;SDS011;17473;52.286;20.930;2023-03-23T11:00:19;8.55;;;3.70;;
30723;SDS011;17473;52.286;20.930;2023-03-23T11:08:22;10.30;;;3.60;;
30723;SDS011;17473;52.286;20.930;2023-03-23T11:10:55;8.90;;;3.20;;
30723;SDS011;17473;52.286;20.930;2023-03-23T11:13:27;11.88;;;3.90;;
30723;SDS011;17473;52.286;20.930;2023-03-23T11:15:57;25.98;;;3.85;;
30723;SDS011;17473;52.286;20.930;2023-03-23T11:18:42;5.38;;;2.88;;
30723;SDS011;17473;52.286;20.930;2023-03-23T11:21:09;15.05;;;3.13;;
30723;SDS011;17473;52.286;20.930;2023-03-23T11:23:40;4.45;;;2.85;;
30723;SDS011;17473;52.286;20.930;2023-03-23T11:26:13;7.78;;;3.42;;
30723;SDS011;17473;52.286;20.930;2023-03-23T11:31:47;5.57;;;3.35;;
30723;SDS011;17473;52.286;20.930;2023-03-23T11:34:24;4.40;;;2.80;;
30723;SDS011;17473;52.286;20.930;2023-03-23T11:37:01;7.13;;;3.20;;
30723;SDS011;17473;52.286;20.930;2023-03-23T11:39:49;6.40;;;3.22;;
30723;SDS011;17473;52.286;20.930;2023-03-23T11:42:34;5.70;;;2.70;;
30723;SDS011;17473;52.286;20.930;2023-03-23T11:45:20;4.82;;;3.30;;
30723;SDS011;17473;52.286;20.930;2023-03-23T11:50:55;4.38;;;3.20;;
30723;SDS011;17473;52.286;20.930;2023-03-23T11:53:37;12.07;;;3.33;;
30723;SDS011;17473;52.286;20.930;2023-03-23T11:56:30;13.80;;;3.33;;
30723;SDS011;17473;52.286;20.930;2023-03-23T11:59:02;7.45;;;2.60;;
30723;SDS011;17473;52.286;20.930;2023-03-23T12:01:40;27.27;;;4.47;;
30723;SDS011;17473;52.286;20.930;2023-03-23T12:04:33;14.48;;;3.25;;
30723;SDS011;17473;52.286;20.930;2023-03-23T12:13:16;8.02;;;3.03;;
30723;SDS011;17473;52.286;20.930;2023-03-23T12:31:47;11.40;;;3.70;;
30723;SDS011;17473;52.286;20.930;2023-03-23T12:34:51;4.22;;;2.60;;
30723;SDS011;17473;52.286;20.930;2023-03-23T12:43:41;4.03;;;2.53;;
30723;SDS011;17473;52.286;20.930;2023-03-23T12:49:29;6.85;;;3.25;;
30723;SDS011;17473;52.286;20.930;2023-03-23T12:52:35;5.90;;;3.53;;
30723;SDS011;17473;52.286;20.930;2023-03-23T12:55:34;7.63;;;3.75;;
30723;SDS011;17473;52.286;20.930;2023-03-23T12:58:28;8.23;;;3.60;;
30723;SDS011;17473;52.286;20.930;2023-03-23T13:01:02;4.63;;;3.20;;
30723;SDS011;17473;52.286;20.930;2023-03-23T13:03:45;9.27;;;3.05;;
30723;SDS011;17473;52.286;20.930;2023-03-23T13:17:22;8.98;;;3.58;;
30723;SDS011;17473;52.286;20.930;2023-03-23T13:23:09;9.43;;;4.28;;
30723;SDS011;17473;52.286;20.930;2023-03-23T13:26:05;5.32;;;3.40;;
30723;SDS011;17473;52.286;20.930;2023-03-23T13:31:40;7.65;;;3.53;;
30723;SDS011;17473;52.286;20.930;2023-03-23T13:36:40;7.63;;;3.53;;
30723;SDS011;17473;52.286;20.930;2023-03-23T13:49:49;10.55;;;3.63;;
30723;SDS011;17473;52.286;20.930;2023-03-23T14:03:45;6.43;;;2.55;;
30723;SDS011;17473;52.286;20.930;2023-03-23T14:06:02;14.65;;;3.15;;
30723;SDS011;17473;52.286;20.930;2023-03-23T14:08:44;7.93;;;3.42;;
30723;SDS011;17473;52.286;20.930;2023-03-23T14:11:15;13.88;;;3.30;;
30723;SDS011;17473;52.286;20.930;2023-03-23T14:14:12;8.57;;;3.90;;
30723;SDS011;17473;52.286;20.930;2023-03-23T14:16:50;30.48;;;4.57;;
30723;SDS011;17473;52.286;20.930;2023-03-23T14:19:27;11.27;;;3.35;;
30723;SDS011;17473;52.286;20.930;2023-03-23T14:21:56;12.85;;;4.07;;
30723;SDS011;17473;52.286;20.930;2023-03-23T14:24:26;7.60;;;3.70;;
30723;SDS011;17473;52.286;20.930;2023-03-23T14:27:01;7.93;;;3.53;;
30723;SDS011;17473;52.286;20.930;2023-03-23T14:29:35;11.35;;;3.67;;
30723;SDS011;17473;52.286;20.930;2023-03-23T14:32:02;9.32;;;3.85;;
30723;SDS011;17473;52.286;20.930;2023-03-23T14:34:31;9.10;;;4.10;;
30723;SDS011;17473;52.286;20.930;2023-03-23T14:36:59;10.88;;;3.83;;
30723;SDS011;17473;52.286;20.930;2023-03-23T14:39:26;8.60;;;3.17;;
30723;SDS011;17473;52.286;20.930;2023-03-23T14:41:56;7.00;;;3.90;;
30723;SDS011;17473;52.286;20.930;2023-03-23T14:44:30;7.00;;;4.13;;
30723;SDS011;17473;52.286;20.930;2023-03-23T14:47:34;5.57;;;3.70;;
30723;SDS011;17473;52.286;20.930;2023-03-23T14:50:06;8.68;;;3.92;;
30723;SDS011;17473;52.286;20.930;2023-03-23T14:53:18;9.35;;;4.05;;
30723;SDS011;17473;52.286;20.930;2023-03-23T14:56:13;8.88;;;4.00;;
30723;SDS011;17473;52.286;20.930;2023-03-23T14:58:45;9.63;;;4.07;;
30723;SDS011;17473;52.286;20.930;2023-03-23T15:01:18;9.73;;;3.88;;
30723;SDS011;17473;52.286;20.930;2023-03-23T15:04:06;7.47;;;4.20;;
30723;SDS011;17473;52.286;20.930;2023-03-23T15:06:41;6.60;;;4.40;;
30723;SDS011;17473;52.286;20.930;2023-03-23T15:09:18;11.45;;;5.18;;
30723;SDS011;17473;52.286;20.930;2023-03-23T15:11:55;8.25;;;4.10;;
30723;SDS011;17473;52.286;20.930;2023-03-23T15:14:24;7.32;;;4.13;;
30723;SDS011;17473;52.286;20.930;2023-03-23T15:16:59;8.38;;;4.78;;
30723;SDS011;17473;52.286;20.930;2023-03-23T15:19:36;5.82;;;4.53;;
30723;SDS011;17473;52.286;20.930;2023-03-23T15:22:20;9.77;;;4.32;;
30723;SDS011;17473;52.286;20.930;2023-03-23T15:24:52;13.02;;;4.13;;
30723;SDS011;17473;52.286;20.930;2023-03-23T15:27:50;8.52;;;4.40;;
30723;SDS011;17473;52.286;20.930;2023-03-23T15:32:52;5.38;;;3.97;;
30723;SDS011;17473;52.286;20.930;2023-03-23T15:35:36;7.15;;;4.32;;
30723;SDS011;17473;52.286;20.930;2023-03-23T15:38:13;10.93;;;4.43;;
30723;SDS011;17473;52.286;20.930;2023-03-23T15:41:01;7.75;;;3.88;;
30723;SDS011;17473;52.286;20.930;2023-03-23T15:43:35;7.70;;;4.40;;
30723;SDS011;17473;52.286;20.930;2023-03-23T15:48:45;12.75;;;4.20;;
30723;SDS011;17473;52.286;20.930;2023-03-23T15:51:15;12.68;;;4.70;;
30723;SDS011;17473;52.286;20.930;2023-03-23T15:53:44;7.28;;;4.72;;
30723;SDS011;17473;52.286;20.930;2023-03-23T15:56:10;7.18;;;3.70;;
30723;SDS011;17473;52.286;20.930;2023-03-23T15:58:38;7.85;;;3.33;;
30723;SDS011;17473;52.286;20.930;2023-03-23T16:01:13;10.05;;;3.20;;
30723;SDS011;17473;52.286;20.930;2023-03-23T16:03:46;10.88;;;4.03;;
30723;SDS011;17473;52.286;20.930;2023-03-23T16:06:16;6.45;;;4.40;;
30723;SDS011;17473;52.286;20.930;2023-03-23T16:08:51;10.98;;;4.38;;
30723;SDS011;17473;52.286;20.930;2023-03-23T16:11:20;11.18;;;4.35;;
30723;SDS011;17473;52.286;20.930;2023-03-23T16:13:49;13.75;;;4.60;;
30723;SDS011;17473;52.286;20.930;2023-03-23T16:17:02;8.20;;;4.22;;
30723;SDS011;17473;52.286;20.930;2023-03-23T16:19:16;7.40;;;3.97;;
30723;SDS011;17473;52.286;20.930;2023-03-23T16:21:45;7.20;;;3.95;;
30723;SDS011;17473;52.286;20.930;2023-03-23T16:24:12;9.15;;;3.63;;
30723;SDS011;17473;52.286;20.930;2023-03-23T16:26:39;5.30;;;3.17;;
30723;SDS011;17473;52.286;20.930;2023-03-23T16:29:13;7.55;;;3.53;;
30723;SDS011;17473;52.286;20.930;2023-03-23T16:32:02;4.22;;;3.13;;
30723;SDS011;17473;52.286;20.930;2023-03-23T16:34:29;7.30;;;3.78;;
30723;SDS011;17473;52.286;20.930;2023-03-23T16:36:59;9.60;;;3.85;;
30723;SDS011;17473;52.286;20.930;2023-03-23T16:39:27;5.55;;;3.30;;
30723;SDS011;17473;52.286;20.930;2023-03-23T16:41:54;7.10;;;3.53;;
30723;SDS011;17473;52.286;20.930;2023-03-23T16:44:21;12.48;;;3.55;;
30723;SDS011;17473;52.286;20.930;2023-03-23T16:46:48;5.63;;;3.63;;
30723;SDS011;17473;52.286;20.930;2023-03-23T16:49:15;6.32;;;3.25;;
30723;SDS011;17473;52.286;20.930;2023-03-23T16:51:42;7.55;;;3.42;;
30723;SDS011;17473;52.286;20.930;2023-03-23T16:54:09;5.38;;;3.17;;
30723;SDS011;17473;52.286;20.930;2023-03-23T16:56:36;7.35;;;3.67;;
30723;SDS011;17473;52.286;20.930;2023-03-23T16:59:04;8.65;;;3.38;;
30723;SDS011;17473;52.286;20.930;2023-03-23T17:01:31;6.28;;;4.15;;
30723;SDS011;17473;52.286;20.930;2023-03-23T17:03:59;9.52;;;4.32;;